Time;durP1;ratioP1;P1;durP2;ratioP2;P2;SDS_P1;SDS_P2;PMS_P1;PMS_P2;Temp;Humidity;BMP_temperature;BMP_pressure;BME280_temperature;BME280_humidity;BME280_pressure;Samples;Min_cycle;Max_cycle;Signal;HPM_P1;HPM_P2
2024/03/02 00:01:55;;;;;;;2.75;1.10;;;9.10;99.90;;;;;;4093355;28;20035;-69
2024/03/02 00:03:56;;;;;;;2.65;1.15;;;9.20;99.90;;;;;;4092856;28;20036;-69
2024/03/02 00:05:56;;;;;;;2.25;1.25;;;9.20;99.90;;;;;;4094748;28;20053;-67
2024/03/02 00:07:58;;;;;;;1.85;1.30;;;9.10;99.90;;;;;;4093847;28;20047;-70
2024/03/02 00:09:58;;;;;;;1.75;1.20;;;9.10;99.90;;;;;;4093913;28;20051;-67
2024/03/02 00:12:00;;;;;;;4.28;1.27;;;9.20;99.90;;;;;;4093573;28;20039;-67
2024/03/02 00:14:01;;;;;;;3.67;1.33;;;9.10;99.90;;;;;;4092821;28;20494;-67
2024/03/02 00:16:04;;;;;;;1.60;1.08;;;9.10;99.90;;;;;;4092557;29;20028;-67
2024/03/02 00:18:05;;;;;;;3.75;1.30;;;9.10;99.90;;;;;;4097479;28;20505;-68
2024/03/02 00:20:10;;;;;;;1.70;1.30;;;9.10;99.90;;;;;;4081562;29;20044;-68
2024/03/02 00:22:10;;;;;;;2.17;1.33;;;9.10;99.90;;;;;;4094293;28;20485;-67
2024/03/02 00:24:43;;;;;;;1.63;1.20;;;9.10;99.90;;;;;;4094539;28;20054;-67
2024/03/02 00:26:45;;;;;;;2.28;1.30;;;9.20;99.90;;;;;;4053639;29;20046;-67
2024/03/02 00:28:46;;;;;;;1.20;0.95;;;9.20;99.90;;;;;;4092771;28;20047;-67
2024/03/02 00:31:07;;;;;;;2.75;1.23;;;9.20;99.90;;;;;;4091747;28;20046;-69
2024/03/02 00:33:08;;;;;;;2.15;1.40;;;9.20;99.90;;;;;;4091870;28;20045;-68
2024/03/02 00:35:10;;;;;;;2.67;1.20;;;9.20;99.90;;;;;;4091081;28;20039;-68
2024/03/02 00:37:11;;;;;;;4.10;1.73;;;9.30;99.90;;;;;;4092974;28;20078;-67
2024/03/02 00:39:14;;;;;;;2.55;1.20;;;9.20;99.90;;;;;;4093489;28;20078;-71
2024/03/02 00:41:22;;;;;;;2.55;1.20;;;9.30;99.90;;;;;;4092623;28;20046;-67
2024/03/02 00:43:50;;;;;;;2.08;1.08;;;9.30;99.90;;;;;;4093840;28;20445;-68
2024/03/02 00:45:50;;;;;;;3.17;1.25;;;9.30;99.90;;;;;;4093267;28;20028;-67
2024/03/02 00:47:52;;;;;;;3.08;1.38;;;9.40;99.90;;;;;;4092675;28;20126;-67
2024/03/02 00:49:53;;;;;;;5.45;1.42;;;9.40;99.90;;;;;;4093836;28;20031;-67
2024/03/02 00:51:54;;;;;;;1.20;1.05;;;9.40;99.90;;;;;;4086565;28;20035;-68
2024/03/02 00:53:58;;;;;;;1.60;1.13;;;9.50;99.90;;;;;;4094358;28;20046;-67
2024/03/02 00:56:00;;;;;;;2.42;1.00;;;9.50;99.90;;;;;;4093149;28;20035;-67
2024/03/02 00:58:01;;;;;;;2.17;1.25;;;9.50;99.90;;;;;;4094284;28;20035;-67
2024/03/02 01:00:07;;;;;;;2.13;1.30;;;9.50;99.90;;;;;;4104973;28;20462;-67
2024/03/02 01:02:07;;;;;;;3.80;1.50;;;9.50;99.90;;;;;;4094406;28;20039;-66
2024/03/02 01:04:08;;;;;;;1.83;1.20;;;9.60;99.90;;;;;;4097682;28;20037;-67
2024/03/02 01:06:09;;;;;;;3.13;1.30;;;9.60;99.90;;;;;;4095798;28;20027;-68
2024/03/02 01:08:10;;;;;;;2.03;1.15;;;9.60;99.90;;;;;;4098134;28;20027;-68
2024/03/02 01:10:11;;;;;;;2.53;0.88;;;9.60;99.90;;;;;;4095466;28;20436;-71
2024/03/02 01:12:11;;;;;;;2.97;1.00;;;9.60;99.90;;;;;;4093185;28;20038;-68
2024/03/02 01:14:12;;;;;;;3.65;1.30;;;9.70;99.90;;;;;;4096687;28;20051;-68
2024/03/02 01:16:13;;;;;;;1.20;0.90;;;9.70;99.90;;;;;;4096209;28;20769;-66
2024/03/02 01:18:14;;;;;;;1.75;1.00;;;9.70;99.90;;;;;;4096745;28;20086;-66
2024/03/02 01:20:15;;;;;;;3.47;1.35;;;9.70;99.90;;;;;;4095782;28;20043;-66
2024/03/02 01:22:15;;;;;;;2.70;1.15;;;9.80;99.90;;;;;;4097100;28;20039;-67
2024/03/02 01:24:16;;;;;;;2.15;0.98;;;9.70;99.90;;;;;;4096894;28;20043;-66
2024/03/02 01:26:17;;;;;;;1.42;0.90;;;9.80;99.90;;;;;;4095860;28;20062;-66
2024/03/02 01:28:18;;;;;;;3.33;1.30;;;9.80;99.90;;;;;;4095650;28;20106;-69
2024/03/02 01:30:19;;;;;;;1.75;1.20;;;9.80;99.90;;;;;;4095569;28;20054;-67
2024/03/02 01:32:20;;;;;;;2.35;1.17;;;9.80;99.90;;;;;;4096364;28;20031;-66
2024/03/02 01:34:21;;;;;;;3.95;1.45;;;9.80;99.90;;;;;;4097661;28;20062;-67
2024/03/02 01:36:21;;;;;;;3.28;0.90;;;9.80;99.90;;;;;;4096291;28;20130;-68
2024/03/02 01:38:22;;;;;;;4.43;1.10;;;9.80;99.90;;;;;;4096486;28;20067;-66
2024/03/02 01:40:26;;;;;;;2.60;1.20;;;9.80;99.90;;;;;;4095744;28;20102;-66
2024/03/02 01:42:26;;;;;;;2.10;1.23;;;9.80;99.90;;;;;;4094660;28;20122;-66
2024/03/02 01:44:27;;;;;;;1.98;0.90;;;9.80;99.90;;;;;;4093394;28;20429;-66
2024/03/02 01:46:28;;;;;;;3.78;1.42;;;9.90;99.90;;;;;;4096079;28;20051;-66
2024/03/02 01:48:28;;;;;;;2.25;1.30;;;9.90;99.90;;;;;;4088030;29;20513;-66
2024/03/02 01:50:32;;;;;;;2.55;1.30;;;9.90;99.90;;;;;;4095211;28;20042;-66
2024/03/02 01:52:33;;;;;;;3.40;1.30;;;9.90;99.90;;;;;;4095424;28;20031;-66
2024/03/02 01:54:34;;;;;;;1.75;1.00;;;9.90;99.90;;;;;;4096313;28;20161;-68
2024/03/02 01:56:35;;;;;;;3.22;1.33;;;9.90;99.90;;;;;;4095405;28;20489;-66
2024/03/02 01:58:36;;;;;;;2.78;1.20;;;9.90;99.90;;;;;;4097212;28;20059;-69
2024/03/02 02:00:36;;;;;;;3.25;1.27;;;9.90;99.90;;;;;;4095270;28;20031;-66
2024/03/02 02:02:37;;;;;;;3.15;1.52;;;9.90;99.90;;;;;;4096175;28;20039;-65
2024/03/02 02:04:41;;;;;;;2.08;1.02;;;10.00;99.90;;;;;;4096864;28;20083;-66
2024/03/02 02:06:43;;;;;;;2.78;1.20;;;10.00;99.90;;;;;;4092232;28;20055;-67
2024/03/02 02:08:45;;;;;;;;;;;10.00;99.90;;;;;;4094410;28;20083;-65
2024/03/02 02:10:45;;;;;;;3.80;1.23;;;9.90;99.90;;;;;;4091499;28;19930;-66
2024/03/02 02:12:46;;;;;;;4.22;1.27;;;10.00;99.90;;;;;;4096184;28;20031;-67
2024/03/02 02:14:49;;;;;;;2.08;1.10;;;10.00;99.90;;;;;;4095142;28;20031;-65
2024/03/02 02:16:49;;;;;;;2.88;1.10;;;9.90;99.90;;;;;;4072728;29;20065;-66
2024/03/02 02:18:50;;;;;;;1.73;1.02;;;10.00;99.90;;;;;;4094484;28;20050;-65
2024/03/02 02:20:50;;;;;;;2.78;1.23;;;9.90;99.90;;;;;;4079600;29;20042;-65
2024/03/02 02:23:01;;;;;;;2.95;1.30;;;9.90;99.90;;;;;;4099764;28;20040;-65
2024/03/02 02:25:01;;;;;;;2.58;1.30;;;9.90;99.90;;;;;;4093067;28;20114;-66
2024/03/02 02:27:02;;;;;;;4.50;1.42;;;10.00;99.90;;;;;;4095053;28;20035;-69
2024/03/02 02:29:03;;;;;;;2.28;1.17;;;9.90;99.90;;;;;;4101088;28;20055;-71
2024/03/02 02:31:03;;;;;;;2.50;1.13;;;10.00;99.90;;;;;;4092370;28;20413;-71
2024/03/02 02:33:04;;;;;;;2.67;1.20;;;10.00;99.90;;;;;;4095529;28;20039;-69
2024/03/02 02:35:05;;;;;;;2.92;1.48;;;10.00;99.90;;;;;;4092140;28;20118;-69
2024/03/02 02:37:06;;;;;;;2.65;1.30;;;10.00;99.90;;;;;;4099912;28;20031;-70
2024/03/02 02:39:10;;;;;;;1.95;1.05;;;10.00;99.90;;;;;;4094749;28;20565;-68
2024/03/02 02:41:11;;;;;;;3.10;1.05;;;10.00;99.90;;;;;;4101463;28;20031;-69
2024/03/02 02:43:11;;;;;;;2.90;1.35;;;10.00;99.90;;;;;;4095986;28;20506;-69
2024/03/02 02:45:14;;;;;;;2.40;1.27;;;10.00;99.90;;;;;;4095655;28;20067;-68
2024/03/02 02:47:14;;;;;;;2.53;1.20;;;10.00;99.90;;;;;;4095699;28;20028;-69
2024/03/02 02:49:15;;;;;;;1.83;1.30;;;10.00;99.90;;;;;;4092531;28;20042;-71
2024/03/02 02:51:17;;;;;;;2.35;1.42;;;10.00;99.90;;;;;;4095129;28;20398;-69
2024/03/02 02:53:17;;;;;;;1.70;1.20;;;10.00;99.90;;;;;;4094124;28;20062;-70
2024/03/02 02:55:18;;;;;;;1.77;1.33;;;10.00;99.90;;;;;;4090411;28;20035;-69
2024/03/02 02:57:19;;;;;;;2.80;1.35;;;10.00;99.90;;;;;;4093269;28;20031;-69
2024/03/02 02:59:19;;;;;;;2.65;1.30;;;10.00;99.90;;;;;;4095128;28;20070;-68
2024/03/02 03:01:20;;;;;;;3.65;1.13;;;10.00;99.90;;;;;;4094725;28;20130;-68
2024/03/02 03:03:20;;;;;;;2.30;1.27;;;10.00;99.90;;;;;;4088216;28;20062;-68
2024/03/02 03:05:21;;;;;;;1.52;1.02;;;10.00;99.90;;;;;;4072551;29;20506;-68
2024/03/02 03:07:21;;;;;;;2.38;1.10;;;10.00;99.90;;;;;;4090159;28;20438;-69
2024/03/02 03:09:22;;;;;;;1.70;1.00;;;10.10;99.90;;;;;;4087426;28;20686;-69
2024/03/02 03:11:24;;;;;;;1.58;1.20;;;10.10;99.90;;;;;;4089741;28;20086;-69
2024/03/02 03:13:25;;;;;;;2.63;1.20;;;10.10;99.90;;;;;;4089876;28;20031;-69
2024/03/02 03:15:26;;;;;;;2.30;1.17;;;10.00;99.90;;;;;;4090997;28;20091;-69
2024/03/02 03:17:29;;;;;;;1.70;0.98;;;10.10;99.90;;;;;;4092980;28;20047;-69
2024/03/02 03:19:30;;;;;;;0.98;0.70;;;10.00;99.90;;;;;;4089271;28;20114;-68
2024/03/02 03:21:31;;;;;;;1.63;0.95;;;10.00;99.90;;;;;;4093415;28;20043;-69
2024/03/02 03:23:32;;;;;;;3.03;0.98;;;9.90;99.90;;;;;;4094966;28;20074;-69
2024/03/02 03:25:32;;;;;;;1.98;0.70;;;9.90;99.90;;;;;;4093910;28;20035;-69
2024/03/02 03:27:33;;;;;;;1.05;0.55;;;9.90;99.90;;;;;;4092998;28;20043;-68
2024/03/02 03:29:35;;;;;;;1.05;0.50;;;9.90;99.90;;;;;;4096355;28;20121;-69
2024/03/02 03:31:36;;;;;;;1.77;0.60;;;9.90;99.90;;;;;;4092222;28;20047;-68
2024/03/02 03:33:36;;;;;;;1.17;0.55;;;9.80;99.90;;;;;;4094747;28;20351;-68
2024/03/02 03:35:37;;;;;;;0.95;0.52;;;9.90;99.90;;;;;;4093897;28;20031;-69
2024/03/02 03:37:38;;;;;;;0.90;0.47;;;9.80;99.90;;;;;;4094677;28;20034;-65
2024/03/02 03:39:38;;;;;;;1.00;0.40;;;9.80;99.90;;;;;;4091201;28;20102;-65
2024/03/02 03:41:40;;;;;;;0.80;0.47;;;9.80;99.90;;;;;;4093018;28;20108;-67
2024/03/02 03:43:41;;;;;;;1.27;0.40;;;9.80;99.90;;;;;;4094791;28;20041;-66
2024/03/02 03:45:42;;;;;;;1.00;0.30;;;9.70;99.90;;;;;;4092632;28;20059;-67
2024/03/02 03:47:43;;;;;;;0.52;0.22;;;9.70;99.90;;;;;;4092188;28;20047;-69
2024/03/02 03:49:44;;;;;;;0.47;0.20;;;9.70;99.90;;;;;;4091465;28;20027;-69
2024/03/02 03:51:44;;;;;;;0.60;0.30;;;9.70;99.90;;;;;;4090467;28;20038;-69
2024/03/02 03:53:45;;;;;;;0.60;0.20;;;9.70;99.90;;;;;;4076810;29;20401;-69
2024/03/02 03:55:46;;;;;;;1.70;0.40;;;9.70;99.90;;;;;;4093416;28;20090;-69
2024/03/02 03:57:47;;;;;;;2.00;0.17;;;9.70;99.90;;;;;;4094272;28;20023;-69
2024/03/02 03:59:47;;;;;;;0.90;0.40;;;9.70;99.90;;;;;;4094298;28;20031;-69
2024/03/02 04:01:48;;;;;;;2.45;0.57;;;9.60;99.90;;;;;;4093358;28;20500;-70
2024/03/02 04:03:49;;;;;;;0.73;0.35;;;9.60;99.90;;;;;;4095287;28;20039;-69
2024/03/02 04:05:50;;;;;;;0.30;0.10;;;9.60;99.90;;;;;;4091034;28;20028;-71
2024/03/02 04:07:50;;;;;;;1.55;0.30;;;9.60;99.90;;;;;;4094161;28;20457;-69
2024/03/02 04:09:51;;;;;;;0.20;0.20;;;9.60;99.90;;;;;;4093370;28;20050;-69
2024/03/02 04:11:51;;;;;;;1.08;0.47;;;9.60;99.90;;;;;;4094713;28;20039;-70
2024/03/02 04:13:52;;;;;;;2.20;0.45;;;9.60;99.90;;;;;;4089944;28;20061;-70
2024/03/02 04:15:53;;;;;;;2.05;0.30;;;9.60;99.90;;;;;;4094101;28;20489;-69
2024/03/02 04:17:55;;;;;;;0.20;0.20;;;9.60;99.90;;;;;;4092571;28;20445;-69
2024/03/02 04:19:56;;;;;;;1.13;0.40;;;9.60;99.90;;;;;;4075927;29;20053;-70
2024/03/02 04:21:56;;;;;;;0.30;0.20;;;9.50;99.90;;;;;;4093146;28;20062;-71
2024/03/02 04:23:58;;;;;;;0.43;0.22;;;9.50;99.90;;;;;;4094191;28;20163;-69
2024/03/02 04:25:59;;;;;;;0.55;0.20;;;9.50;99.90;;;;;;4094211;28;20045;-69
2024/03/02 04:28:00;;;;;;;0.55;0.40;;;9.50;99.90;;;;;;4093174;28;20456;-69
2024/03/02 04:30:01;;;;;;;0.43;0.32;;;9.50;99.90;;;;;;4093838;28;20066;-69
2024/03/02 04:32:01;;;;;;;0.25;0.20;;;9.50;99.90;;;;;;4090280;28;22933;-70
2024/03/02 04:34:02;;;;;;;0.70;0.38;;;9.50;99.90;;;;;;4095148;28;20067;-70
2024/03/02 04:36:03;;;;;;;0.20;0.20;;;9.50;99.90;;;;;;4091031;28;20050;-69
2024/03/02 04:38:03;;;;;;;0.50;0.30;;;9.60;99.90;;;;;;4092471;28;20028;-69
2024/03/02 04:40:08;;;;;;;0.30;0.20;;;9.60;99.90;;;;;;4093786;28;20094;-69
2024/03/02 04:42:08;;;;;;;2.28;0.30;;;9.60;99.90;;;;;;4094064;28;20474;-69
2024/03/02 04:44:09;;;;;;;0.75;0.28;;;9.60;99.90;;;;;;4077190;29;20058;-70
2024/03/02 04:46:12;;;;;;;1.42;0.30;;;9.60;99.90;;;;;;4090322;28;20028;-69
2024/03/02 04:48:14;;;;;;;0.40;0.20;;;9.50;99.90;;;;;;4071314;29;20035;-69
2024/03/02 04:50:14;;;;;;;0.95;0.30;;;9.60;99.90;;;;;;4092569;28;20505;-69
2024/03/02 04:52:15;;;;;;;0.32;0.30;;;9.60;99.90;;;;;;4088209;28;20039;-69
2024/03/02 04:54:16;;;;;;;0.75;0.20;;;9.50;99.90;;;;;;4092566;28;20032;-69
2024/03/02 04:56:39;;;;;;;1.17;0.40;;;9.50;99.90;;;;;;4093857;28;20107;-69
2024/03/02 04:58:39;;;;;;;0.30;0.30;;;9.50;99.90;;;;;;4093411;28;20394;-68
2024/03/02 05:00:40;;;;;;;0.52;0.20;;;9.50;99.90;;;;;;4095506;28;20043;-69
2024/03/02 05:02:41;;;;;;;0.20;0.20;;;9.50;99.90;;;;;;4094107;28;20179;-69
2024/03/02 05:04:41;;;;;;;0.70;0.40;;;9.50;99.90;;;;;;4093205;28;20097;-69
2024/03/02 05:06:42;;;;;;;1.38;0.20;;;9.50;99.90;;;;;;4093662;28;20477;-69
2024/03/02 05:08:44;;;;;;;0.50;0.40;;;9.50;99.90;;;;;;4095017;28;20105;-68
2024/03/02 05:10:45;;;;;;;1.15;0.40;;;9.50;99.90;;;;;;4093640;28;20043;-69
2024/03/02 05:14:46;;;;;;;0.82;0.50;;;9.50;99.90;;;;;;4084996;29;20119;-68
2024/03/02 05:16:47;;;;;;;0.40;0.30;;;9.50;99.90;;;;;;4092123;28;20040;-68
2024/03/02 05:18:48;;;;;;;0.40;0.40;;;9.50;99.90;;;;;;4093467;28;20362;-68
2024/03/02 05:20:48;;;;;;;0.75;0.50;;;9.40;99.90;;;;;;4091319;28;20489;-68
2024/03/02 05:22:49;;;;;;;1.20;0.55;;;9.40;99.90;;;;;;4102756;28;20043;-68
2024/03/02 05:24:50;;;;;;;0.73;0.50;;;9.40;99.90;;;;;;4093932;28;20035;-68
2024/03/02 05:26:50;;;;;;;0.52;0.30;;;9.40;99.90;;;;;;4093102;28;20055;-69
2024/03/02 05:28:51;;;;;;;0.45;0.38;;;9.40;99.90;;;;;;4057300;29;20096;-68
2024/03/02 05:30:52;;;;;;;0.60;0.40;;;9.40;99.90;;;;;;4092862;28;20035;-69
2024/03/02 05:32:52;;;;;;;2.05;0.70;;;9.30;99.90;;;;;;4093191;28;20485;-68
2024/03/02 05:34:53;;;;;;;0.35;0.32;;;9.20;99.90;;;;;;4076574;29;20103;-68
2024/03/02 05:36:54;;;;;;;0.45;0.40;;;9.20;99.90;;;;;;4093519;28;20035;-69
2024/03/02 05:38:55;;;;;;;0.98;0.60;;;9.20;99.90;;;;;;4083581;28;20409;-68
2024/03/02 05:40:56;;;;;;;1.58;0.75;;;9.20;99.90;;;;;;4090719;28;20028;-68
2024/03/02 05:42:56;;;;;;;1.98;1.02;;;9.20;99.90;;;;;;4093152;28;20168;-68
2024/03/02 05:44:57;;;;;;;1.20;0.90;;;9.10;99.90;;;;;;4095475;28;20035;-69
2024/03/02 05:46:57;;;;;;;1.88;1.27;;;9.10;99.90;;;;;;4095182;28;20027;-69
2024/03/02 05:48:59;;;;;;;1.65;1.15;;;9.10;99.90;;;;;;4091946;28;20501;-69
2024/03/02 05:51:00;;;;;;;2.05;1.35;;;9.10;99.90;;;;;;4094909;28;20046;-68
2024/03/02 05:53:01;;;;;;;1.85;0.88;;;9.10;99.90;;;;;;4079061;29;20039;-69
2024/03/02 05:55:01;;;;;;;2.40;0.90;;;9.00;99.90;;;;;;4093051;28;20046;-68
2024/03/02 05:57:16;;;;;;;1.63;0.98;;;9.00;99.90;;;;;;4093006;28;20035;-68
2024/03/02 05:59:17;;;;;;;4.25;1.23;;;9.00;99.90;;;;;;4087545;28;20400;-68
2024/03/02 06:01:18;;;;;;;1.80;0.70;;;9.10;99.90;;;;;;4095884;28;20126;-68
2024/03/02 06:03:19;;;;;;;1.20;0.77;;;9.00;99.90;;;;;;4093609;28;20039;-69
2024/03/02 06:05:19;;;;;;;1.50;0.85;;;9.00;99.90;;;;;;4091827;28;20042;-69
2024/03/02 06:07:20;;;;;;;1.45;0.60;;;9.00;99.90;;;;;;4096622;28;20054;-69
2024/03/02 06:09:23;;;;;;;1.27;0.73;;;9.00;99.90;;;;;;4095739;28;20035;-69
2024/03/02 06:11:23;;;;;;;;;;;9.00;99.90;;;;;;4094439;28;20072;-69
2024/03/02 06:13:26;;;;;;;2.55;0.90;;;8.90;99.90;;;;;;4096214;28;19914;-69
2024/03/02 06:15:27;;;;;;;1.52;0.85;;;8.90;99.90;;;;;;4094090;28;20055;-69
2024/03/02 06:17:27;;;;;;;1.73;1.00;;;8.90;99.90;;;;;;4092820;28;20397;-66
2024/03/02 06:19:28;;;;;;;0.73;0.60;;;8.90;99.90;;;;;;4095416;28;20034;-66
2024/03/02 06:21:29;;;;;;;1.85;0.90;;;8.90;99.90;;;;;;4096101;28;20099;-66
2024/03/02 06:23:30;;;;;;;1.20;0.95;;;8.80;99.90;;;;;;4095792;28;20039;-66
2024/03/02 06:25:31;;;;;;;3.63;1.35;;;8.80;99.90;;;;;;4094190;28;20441;-66
2024/03/02 06:27:31;;;;;;;1.40;1.05;;;8.80;99.90;;;;;;4091868;28;20485;-66
2024/03/02 06:29:35;;;;;;;1.98;1.00;;;8.70;99.90;;;;;;4091421;28;20031;-67
2024/03/02 06:31:36;;;;;;;3.50;1.08;;;8.70;99.90;;;;;;4078874;28;20118;-67
2024/03/02 06:33:37;;;;;;;1.70;0.98;;;8.70;99.90;;;;;;4083191;28;20047;-67
2024/03/02 06:35:37;;;;;;;2.95;1.60;;;8.80;99.90;;;;;;4091957;28;20035;-65
2024/03/02 06:37:41;;;;;;;2.83;1.13;;;8.70;99.90;;;;;;4109878;28;20069;-66
2024/03/02 06:39:43;;;;;;;2.58;1.52;;;8.70;99.90;;;;;;4092589;28;20058;-66
2024/03/02 06:41:43;;;;;;;2.50;1.30;;;8.80;99.90;;;;;;4093962;28;20489;-66
2024/03/02 06:43:44;;;;;;;1.88;1.23;;;8.80;99.90;;;;;;4095463;28;20028;-68
2024/03/02 06:45:45;;;;;;;1.88;1.10;;;8.80;99.90;;;;;;4091576;28;20183;-66
2024/03/02 06:47:45;;;;;;;2.08;1.13;;;8.80;99.90;;;;;;4092683;28;20046;-66
2024/03/02 06:49:46;;;;;;;1.90;1.35;;;8.80;99.90;;;;;;4081691;28;20082;-66
2024/03/02 06:51:47;;;;;;;2.53;1.33;;;8.80;99.90;;;;;;4091320;28;20075;-67
2024/03/02 06:53:47;;;;;;;1.80;1.40;;;8.90;99.90;;;;;;4091368;28;20071;-64
2024/03/02 06:55:48;;;;;;;1.77;1.23;;;8.90;99.90;;;;;;4092474;28;20071;-66
2024/03/02 06:57:48;;;;;;;1.67;0.95;;;8.90;99.90;;;;;;4093371;28;20049;-69
2024/03/02 06:59:51;;;;;;;2.42;1.48;;;9.00;99.90;;;;;;4089229;28;20142;-67
2024/03/02 07:01:51;;;;;;;1.77;1.40;;;9.10;99.90;;;;;;4094907;28;20035;-66
2024/03/02 07:03:52;;;;;;;1.95;1.25;;;9.10;99.90;;;;;;4096225;28;20399;-66
2024/03/02 07:05:53;;;;;;;2.58;1.55;;;9.10;99.90;;;;;;4089710;28;20028;-67
2024/03/02 07:07:53;;;;;;;2.15;1.38;;;9.10;99.90;;;;;;4090984;28;20035;-67
2024/03/02 07:09:54;;;;;;;2.33;1.40;;;9.10;99.90;;;;;;4091268;28;20047;-67
2024/03/02 07:11:54;;;;;;;3.53;1.65;;;9.20;99.90;;;;;;4075904;28;20383;-69
2024/03/02 07:13:55;;;;;;;4.53;1.90;;;9.30;99.90;;;;;;4093947;28;20054;-66
2024/03/02 07:18:11;;;;;;;3.90;1.90;;;9.30;99.90;;;;;;4097710;28;20118;-66
2024/03/02 07:20:12;;;;;;;3.35;1.73;;;9.20;99.90;;;;;;4095669;28;20445;-67
2024/03/02 07:22:13;;;;;;;2.60;1.45;;;9.20;99.90;;;;;;4091421;28;20130;-66
2024/03/02 07:24:16;;;;;;;2.58;1.48;;;9.40;99.90;;;;;;4091532;28;20055;-66
2024/03/02 07:26:18;;;;;;;3.45;1.52;;;9.40;99.90;;;;;;4094300;28;20039;-66
2024/03/02 07:28:19;;;;;;;2.72;1.40;;;9.60;99.90;;;;;;4078118;28;20042;-69
2024/03/02 07:30:19;;;;;;;3.80;1.30;;;9.60;99.90;;;;;;4090992;28;20070;-69
2024/03/02 07:32:20;;;;;;;1.73;1.20;;;9.60;99.90;;;;;;4093162;28;20035;-69
2024/03/02 07:34:22;;;;;;;4.77;1.67;;;9.50;99.90;;;;;;4094230;28;20134;-69
2024/03/02 07:36:22;;;;;;;2.53;1.42;;;9.50;99.90;;;;;;4090382;28;20482;-69
2024/03/02 07:38:23;;;;;;;4.75;1.60;;;9.60;99.90;;;;;;4093518;28;20542;-69
2024/03/02 07:40:25;;;;;;;4.53;1.65;;;9.70;99.90;;;;;;4090172;28;20054;-69
2024/03/02 07:42:25;;;;;;;2.50;1.40;;;9.60;99.90;;;;;;4095307;28;20118;-69
2024/03/02 07:44:26;;;;;;;2.08;1.40;;;9.70;99.90;;;;;;4095657;28;20548;-69
2024/03/02 07:46:27;;;;;;;1.88;1.13;;;9.80;99.90;;;;;;4092042;28;20516;-69
2024/03/02 07:48:27;;;;;;;1.42;0.95;;;9.80;99.90;;;;;;4093300;28;20039;-69
2024/03/02 07:50:28;;;;;;;2.58;1.30;;;9.90;99.90;;;;;;4090247;28;20047;-69
2024/03/02 07:52:29;;;;;;;1.83;1.35;;;10.00;99.90;;;;;;4072986;29;20099;-69
2024/03/02 07:54:29;;;;;;;3.58;1.40;;;10.00;99.90;;;;;;4095388;28;20031;-69
2024/03/02 07:56:30;;;;;;;2.17;1.35;;;10.00;99.90;;;;;;4094690;28;20034;-69
2024/03/02 07:58:31;;;;;;;2.03;1.48;;;10.30;99.90;;;;;;4095666;28;20027;-69
2024/03/02 08:00:32;;;;;;;2.22;1.27;;;10.90;99.90;;;;;;4099823;28;20035;-69
2024/03/02 08:02:32;;;;;;;1.65;1.33;;;11.30;99.90;;;;;;4097413;28;20027;-69
2024/03/02 08:04:33;;;;;;;1.80;1.00;;;11.70;99.90;;;;;;4094751;28;20039;-69
2024/03/02 08:06:33;;;;;;;3.85;1.20;;;11.90;99.90;;;;;;4093140;28;20043;-70
2024/03/02 08:08:34;;;;;;;1.80;1.33;;;12.10;99.90;;;;;;4085609;28;20098;-69
2024/03/02 08:10:35;;;;;;;3.60;1.25;;;12.20;99.90;;;;;;4093763;28;20077;-69
2024/03/02 08:12:36;;;;;;;2.17;1.40;;;12.40;99.90;;;;;;4100977;28;20089;-70
2024/03/02 08:14:36;;;;;;;1.88;1.13;;;12.70;99.90;;;;;;4099323;28;20492;-69
2024/03/02 08:16:37;;;;;;;2.03;1.30;;;12.90;99.90;;;;;;4095423;28;20082;-69
2024/03/02 08:18:38;;;;;;;2.92;1.50;;;12.70;99.90;;;;;;4096568;28;20054;-69
2024/03/02 08:20:39;;;;;;;2.83;1.40;;;12.80;99.90;;;;;;4097286;28;20059;-70
2024/03/02 08:22:40;;;;;;;2.13;1.13;;;12.90;99.90;;;;;;4095629;28;20038;-69
2024/03/02 08:24:41;;;;;;;2.03;1.30;;;13.20;99.90;;;;;;4098236;28;20433;-69
2024/03/02 08:26:42;;;;;;;2.33;1.23;;;13.10;99.90;;;;;;4094803;28;20039;-70
2024/03/02 08:28:43;;;;;;;3.30;1.60;;;13.00;99.90;;;;;;4095406;28;20041;-69
2024/03/02 08:30:43;;;;;;;1.92;1.40;;;13.00;99.90;;;;;;4076371;28;20498;-69
2024/03/02 08:32:45;;;;;;;2.75;1.33;;;13.10;99.90;;;;;;4092887;28;20051;-69
2024/03/02 08:34:45;;;;;;;3.00;1.40;;;13.30;99.90;;;;;;4086524;28;20031;-69
2024/03/02 08:36:48;;;;;;;3.03;1.30;;;13.40;99.90;;;;;;4086118;28;20683;-70
2024/03/02 08:38:50;;;;;;;1.50;0.93;;;13.50;99.90;;;;;;4050220;29;20573;-69
2024/03/02 08:40:51;;;;;;;2.00;1.23;;;13.60;99.90;;;;;;4089285;28;20035;-71
2024/03/02 08:42:52;;;;;;;3.30;1.20;;;13.70;99.90;;;;;;4095558;28;20152;-70
2024/03/02 08:44:53;;;;;;;2.22;1.13;;;13.80;99.90;;;;;;4086712;28;20035;-68
2024/03/02 08:46:53;;;;;;;2.70;1.15;;;14.00;99.90;;;;;;4089714;28;20082;-69
2024/03/02 08:48:54;;;;;;;1.42;1.08;;;14.10;99.90;;;;;;4095438;28;20062;-70
2024/03/02 08:50:55;;;;;;;2.63;1.25;;;14.20;99.90;;;;;;4089710;28;20118;-70
2024/03/02 08:52:55;;;;;;;2.03;1.00;;;14.30;99.90;;;;;;4094489;28;20514;-69
2024/03/02 08:54:56;;;;;;;1.85;1.05;;;14.40;99.90;;;;;;4095467;28;20031;-69
2024/03/02 08:56:56;;;;;;;2.70;1.08;;;14.40;99.90;;;;;;4094003;28;20065;-70
2024/03/02 08:58:57;;;;;;;2.00;1.25;;;14.50;99.90;;;;;;4094449;28;20402;-70
2024/03/02 09:00:58;;;;;;;5.50;1.10;;;14.50;99.90;;;;;;4093511;28;20027;-70
2024/03/02 09:02:59;;;;;;;2.70;1.13;;;14.50;99.90;;;;;;4079239;29;20054;-69
2024/03/02 09:05:00;;;;;;;2.00;0.93;;;14.70;99.90;;;;;;4079678;29;20039;-70
2024/03/02 09:07:01;;;;;;;2.08;1.00;;;14.70;99.90;;;;;;4100141;28;20109;-70
2024/03/02 09:09:02;;;;;;;1.25;0.73;;;14.60;99.90;;;;;;4089311;28;20058;-70
2024/03/02 09:11:05;;;;;;;3.47;1.13;;;14.50;99.90;;;;;;4092753;28;20039;-70
2024/03/02 09:13:05;;;;;;;3.17;1.27;;;14.50;99.90;;;;;;4093627;28;20106;-70
2024/03/02 09:15:06;;;;;;;2.35;0.70;;;14.60;99.90;;;;;;4087582;28;20126;-69
2024/03/02 09:17:09;;;;;;;2.22;1.08;;;14.50;99.90;;;;;;4096450;28;20377;-69
2024/03/02 09:19:10;;;;;;;1.20;0.77;;;14.50;99.90;;;;;;4098895;28;20039;-70
2024/03/02 09:21:10;;;;;;;1.63;0.90;;;14.50;99.90;;;;;;4094916;28;20039;-69
2024/03/02 09:23:11;;;;;;;1.33;1.02;;;14.50;99.90;;;;;;4086010;28;20119;-70
2024/03/02 09:25:12;;;;;;;1.77;1.10;;;14.40;99.90;;;;;;4085135;28;20036;-70
2024/03/02 09:27:13;;;;;;;1.63;0.90;;;14.50;99.90;;;;;;4086359;28;20050;-70
2024/03/02 09:29:14;;;;;;;1.67;0.70;;;14.40;99.90;;;;;;4097025;28;20035;-70
2024/03/02 09:31:14;;;;;;;1.17;0.70;;;14.40;99.90;;;;;;4101451;28;20047;-69
2024/03/02 09:33:15;;;;;;;2.53;1.00;;;14.30;99.90;;;;;;4099185;28;20067;-70
2024/03/02 09:35:16;;;;;;;1.40;0.90;;;14.30;99.90;;;;;;4081316;28;20122;-70
2024/03/02 09:37:16;;;;;;;1.10;0.70;;;14.20;99.90;;;;;;4096101;28;20036;-69
2024/03/02 09:39:17;;;;;;;3.72;1.00;;;14.30;99.90;;;;;;4096580;28;20035;-69
2024/03/02 09:41:19;;;;;;;2.17;0.90;;;14.30;99.90;;;;;;4084575;28;20050;-69
2024/03/02 09:43:19;;;;;;;2.35;0.70;;;14.10;99.90;;;;;;4100038;28;20043;-70
2024/03/02 09:45:24;;;;;;;1.50;0.88;;;14.00;99.90;;;;;;4097845;28;20039;-69
2024/03/02 09:47:25;;;;;;;2.38;1.10;;;14.00;99.90;;;;;;4090102;28;20367;-69
2024/03/02 09:49:26;;;;;;;3.08;0.90;;;14.00;99.90;;;;;;4096667;28;20163;-69
2024/03/02 09:51:27;;;;;;;1.33;0.80;;;14.00;99.90;;;;;;4097004;28;20078;-69
2024/03/02 09:53:31;;;;;;;1.20;0.82;;;13.60;99.90;;;;;;4099668;28;20034;-69
2024/03/02 09:55:32;;;;;;;2.50;0.85;;;13.70;99.90;;;;;;4098349;28;20067;-69
2024/03/02 09:57:33;;;;;;;2.50;0.95;;;13.80;99.90;;;;;;4099144;28;20398;-69
2024/03/02 09:59:34;;;;;;;1.52;0.50;;;13.70;99.90;;;;;;4095806;28;20035;-70
2024/03/02 10:01:35;;;;;;;2.15;0.90;;;13.60;99.90;;;;;;4094195;28;20035;-70
2024/03/02 10:03:37;;;;;;;1.10;0.82;;;13.70;99.90;;;;;;4101453;28;20047;-69
2024/03/02 10:05:37;;;;;;;1.60;1.00;;;13.60;99.90;;;;;;4094974;28;20024;-69
2024/03/02 10:07:38;;;;;;;4.03;1.00;;;13.70;99.90;;;;;;4077407;28;20331;-70
2024/03/02 10:09:43;;;;;;;2.35;1.00;;;13.80;99.90;;;;;;4095391;28;20098;-70
2024/03/02 10:11:43;;;;;;;1.33;0.90;;;13.80;99.90;;;;;;4092537;28;20736;-69
2024/03/02 10:13:45;;;;;;;2.50;1.00;;;13.80;99.90;;;;;;4094496;28;20110;-69
2024/03/02 10:15:46;;;;;;;4.05;1.45;;;13.80;99.90;;;;;;4094678;28;20125;-70
2024/03/02 10:17:47;;;;;;;2.10;0.75;;;13.70;99.90;;;;;;4076809;29;21716;-68
2024/03/02 10:19:48;;;;;;;1.63;1.00;;;13.70;99.90;;;;;;4094484;28;20046;-68
2024/03/02 10:21:53;;;;;;;1.30;0.80;;;13.70;99.90;;;;;;4081861;28;20051;-68
2024/03/02 10:24:07;;;;;;;1.30;0.70;;;13.70;99.90;;;;;;4080890;28;20441;-68
2024/03/02 10:26:20;;;;;;;1.67;0.80;;;13.80;99.90;;;;;;4063590;29;20043;-69
2024/03/02 10:28:21;;;;;;;2.67;0.50;;;13.80;99.90;;;;;;4096329;28;20095;-68
2024/03/02 10:30:22;;;;;;;1.92;0.80;;;13.80;99.90;;;;;;4081391;28;20060;-68
2024/03/02 10:32:23;;;;;;;1.77;0.90;;;13.80;99.90;;;;;;4067112;29;20443;-68
2024/03/02 10:34:33;;;;;;;2.03;1.02;;;13.90;99.90;;;;;;4049919;29;20822;-69
2024/03/02 10:36:36;;;;;;;1.40;0.70;;;14.00;99.90;;;;;;4073154;28;20102;-68
2024/03/02 10:38:37;;;;;;;3.47;1.00;;;14.00;99.90;;;;;;4062509;29;20583;-68
2024/03/02 10:40:41;;;;;;;2.22;0.82;;;14.10;99.90;;;;;;4053211;29;20079;-68
2024/03/02 10:42:43;;;;;;;3.05;0.80;;;13.90;99.90;;;;;;4063327;29;20043;-67